Time;durP1;ratioP1;P1;durP2;ratioP2;P2;SDS_P1;SDS_P2;PMS_P1;PMS_P2;Temp;Humidity;BMP_temperature;BMP_pressure;BME280_temperature;BME280_humidity;BME280_pressure;Samples;Min_cycle;Max_cycle;Signal;HPM_P1;HPM_P2
2023/06/15 00:02:20;;;;;;;8.82;6.25;;;;;;;16.94;74.08;100247.66;5092211;28;20031;-68
2023/06/15 00:04:45;;;;;;;7.95;5.72;;;;;;;17.00;74.93;100260.50;5085224;28;20035;-69
2023/06/15 00:07:11;;;;;;;8.18;5.85;;;;;;;16.92;74.97;100246.09;5104326;28;20038;-68
2023/06/15 00:09:36;;;;;;;8.45;5.78;;;;;;;16.93;75.07;100251.34;5094740;28;20024;-68
2023/06/15 00:12:02;;;;;;;6.30;5.32;;;;;;;16.90;74.73;100248.16;5088551;28;20027;-68
2023/06/15 00:14:27;;;;;;;7.55;5.70;;;;;;;16.87;75.12;100240.41;5095496;28;20024;-68
2023/06/15 00:16:54;;;;;;;8.73;5.50;;;;;;;16.81;75.24;100243.81;5096680;28;20506;-68
2023/06/15 00:19:20;;;;;;;11.13;5.43;;;;;;;16.78;75.15;100244.16;5090407;28;20027;-69
2023/06/15 00:21:48;;;;;;;10.32;6.00;;;;;;;16.72;75.13;100245.72;5097107;28;20019;-68
2023/06/15 00:24:16;;;;;;;10.32;6.32;;;;;;;16.66;74.92;100222.03;5097689;28;20035;-68
2023/06/15 00:26:43;;;;;;;14.45;6.20;;;;;;;16.73;75.09;100243.84;5094377;28;20044;-68
2023/06/15 00:29:10;;;;;;;12.05;6.45;;;;;;;16.72;75.44;100250.28;5094645;28;20023;-68
2023/06/15 00:31:35;;;;;;;8.93;5.68;;;;;;;16.65;75.41;100249.28;5074945;28;20044;-68
2023/06/15 00:34:01;;;;;;;9.00;5.70;;;;;;;16.64;75.49;100248.44;5098146;28;20035;-68
2023/06/15 00:36:27;;;;;;;8.88;5.18;;;;;;;16.62;75.75;100246.94;5089035;28;20036;-68
2023/06/15 00:38:52;;;;;;;10.55;6.35;;;;;;;16.57;76.35;100249.34;5102540;28;20024;-68
2023/06/15 00:41:18;;;;;;;11.90;6.15;;;;;;;16.55;76.31;100251.34;5075980;28;20170;-68
2023/06/15 00:43:43;;;;;;;9.20;6.07;;;;;;;16.52;76.96;100246.28;5093228;28;20440;-68
2023/06/15 00:46:09;;;;;;;7.53;5.57;;;;;;;16.48;76.63;100243.06;5077312;28;20035;-68
2023/06/15 00:48:35;;;;;;;8.05;6.00;;;;;;;16.45;76.79;100240.75;5086268;28;20020;-68
2023/06/15 00:51:01;;;;;;;11.05;6.55;;;;;;;16.43;77.00;100244.63;5103355;28;20032;-69
2023/06/15 00:53:26;;;;;;;8.90;6.05;;;;;;;16.39;77.32;100245.97;5094279;28;20031;-68
2023/06/15 00:55:52;;;;;;;10.35;6.32;;;;;;;16.37;77.57;100238.00;5096747;28;20026;-68
2023/06/15 00:58:19;;;;;;;9.23;5.70;;;;;;;16.41;77.72;100244.75;5087303;28;20016;-68
2023/06/15 01:00:48;;;;;;;7.30;5.90;;;;;;;16.40;77.52;100242.22;5096440;28;20157;-68
2023/06/15 01:03:20;;;;;;;9.05;5.63;;;;;;;16.39;77.34;100238.69;5086405;28;20044;-68
2023/06/15 01:05:47;;;;;;;8.27;5.90;;;;;;;16.37;77.41;100242.56;5088400;28;20030;-68
2023/06/15 01:08:15;;;;;;;8.65;6.05;;;;;;;16.35;77.41;100247.34;5087012;28;20028;-68
2023/06/15 01:10:42;;;;;;;8.07;5.53;;;;;;;16.33;77.73;100246.66;5090911;28;20085;-68
2023/06/15 01:13:12;;;;;;;9.50;6.47;;;;;;;16.29;77.97;100240.75;5094889;28;20019;-68
2023/06/15 01:15:40;;;;;;;11.32;5.95;;;;;;;16.21;77.74;100224.50;5094657;28;20027;-68
2023/06/15 01:18:07;;;;;;;10.85;6.30;;;;;;;16.24;77.94;100234.13;5069209;28;20040;-68
2023/06/15 01:20:39;;;;;;;8.10;5.78;;;;;;;16.18;78.05;100229.44;5088051;28;20036;-68
2023/06/15 01:23:21;;;;;;;13.20;6.50;;;;;;;16.23;78.13;100246.00;5072333;28;20055;-68
2023/06/15 01:25:48;;;;;;;7.70;5.47;;;;;;;16.18;77.97;100238.38;5087786;28;20044;-68
2023/06/15 01:28:22;;;;;;;10.45;5.80;;;;;;;16.10;77.87;100234.84;5085424;28;20174;-68
2023/06/15 01:30:51;;;;;;;11.85;6.30;;;;;;;16.03;77.69;100225.75;5088037;28;20032;-68
2023/06/15 01:33:17;;;;;;;9.85;5.88;;;;;;;16.10;78.00;100240.28;5087813;28;20046;-68
2023/06/15 01:35:43;;;;;;;10.55;6.05;;;;;;;15.98;77.73;100222.69;5070410;28;20032;-68
2023/06/15 01:38:10;;;;;;;10.18;5.88;;;;;;;15.93;78.43;100215.94;5086604;28;20080;-68
2023/06/15 01:40:38;;;;;;;10.32;6.43;;;;;;;16.00;78.05;100237.75;5087952;28;20023;-68
2023/06/15 01:43:07;;;;;;;8.73;5.70;;;;;;;15.97;78.25;100232.69;5085775;28;20806;-68
2023/06/15 01:45:34;;;;;;;7.90;6.05;;;;;;;15.96;77.96;100224.75;5086920;28;20027;-68
2023/06/15 01:47:59;;;;;;;11.68;5.85;;;;;;;15.93;78.01;100222.38;5089868;28;20031;-68
2023/06/15 01:50:26;;;;;;;8.25;6.07;;;;;;;15.90;77.97;100219.00;5098629;28;20034;-68
2023/06/15 01:52:51;;;;;;;8.90;5.78;;;;;;;15.80;78.13;100212.91;5091206;28;20063;-69
2023/06/15 01:55:17;;;;;;;9.55;6.32;;;;;;;15.79;78.10;100211.25;5073964;28;20117;-68
2023/06/15 01:57:42;;;;;;;11.85;6.13;;;;;;;15.79;78.11;100213.94;5100718;28;20052;-67
2023/06/15 02:00:10;;;;;;;10.95;6.72;;;;;;;15.76;78.26;100219.69;5098901;28;20031;-67
2023/06/15 02:02:37;;;;;;;9.65;6.47;;;;;;;15.74;78.71;100219.00;5089457;28;20024;-68
2023/06/15 02:05:04;;;;;;;13.20;6.32;;;;;;;15.70;78.93;100214.94;5094817;28;20031;-67
2023/06/15 02:07:29;;;;;;;10.23;6.20;;;;;;;15.67;78.98;100212.59;5080543;28;20113;-68
2023/06/15 02:09:55;;;;;;;8.30;6.50;;;;;;;15.67;78.49;100222.56;5083372;28;20566;-68
2023/06/15 02:12:20;;;;;;;15.73;7.10;;;;;;;15.60;79.34;100216.13;5099841;28;20027;-68
2023/06/15 02:14:48;;;;;;;10.15;6.57;;;;;;;15.62;79.22;100214.13;5091027;28;20020;-67
2023/06/15 02:17:14;;;;;;;7.85;6.30;;;;;;;15.54;78.75;100206.84;5088572;28;20051;-68
2023/06/15 02:19:40;;;;;;;11.70;6.68;;;;;;;15.50;79.06;100205.50;5094767;28;20532;-68
2023/06/15 02:22:06;;;;;;;9.68;6.80;;;;;;;15.52;79.49;100208.03;5099317;28;20044;-68
2023/06/15 02:24:31;;;;;;;7.90;6.35;;;;;;;15.57;79.55;100227.28;5086589;28;20024;-67
2023/06/15 02:26:57;;;;;;;10.15;5.88;;;;;;;15.55;79.90;100230.16;5090148;28;20458;-68
2023/06/15 02:29:22;;;;;;;8.40;6.32;;;;;;;15.47;79.95;100221.19;5077109;28;20127;-68
2023/06/15 02:31:48;;;;;;;8.48;6.82;;;;;;;15.51;79.40;100226.09;5089538;28;20030;-67
2023/06/15 02:34:13;;;;;;;9.00;6.35;;;;;;;15.50;79.45;100221.72;5089015;28;20507;-68
2023/06/15 02:36:39;;;;;;;8.20;6.30;;;;;;;15.40;78.94;100209.38;5090999;28;20020;-67
2023/06/15 02:39:05;;;;;;;8.45;6.43;;;;;;;15.45;79.68;100224.06;5069386;28;20026;-68
2023/06/15 02:41:31;;;;;;;10.07;6.07;;;;;;;15.47;79.78;100224.75;5095309;28;20046;-68
2023/06/15 02:43:56;;;;;;;8.95;5.68;;;;;;;15.44;79.83;100225.09;5078039;28;20027;-68
2023/06/15 02:46:22;;;;;;;9.45;6.97;;;;;;;15.43;79.57;100227.97;5091649;28;20509;-68
2023/06/15 02:48:51;;;;;;;10.80;6.20;;;;;;;15.46;79.56;100233.88;5105117;28;20076;-67
2023/06/15 02:51:19;;;;;;;7.47;5.85;;;;;;;15.48;79.35;100237.25;5102477;28;20028;-68
2023/06/15 02:53:46;;;;;;;8.93;6.72;;;;;;;15.36;79.57;100219.69;5090268;28;20035;-68
2023/06/15 02:56:17;;;;;;;10.10;6.63;;;;;;;15.41;79.43;100225.44;5098906;28;20099;-67
2023/06/15 02:58:47;;;;;;;8.38;6.38;;;;;;;15.44;79.55;100235.91;5077949;28;20048;-68
2023/06/15 03:01:15;;;;;;;11.70;5.80;;;;;;;15.44;79.39;100230.50;5104812;28;20029;-68
2023/06/15 03:03:42;;;;;;;8.50;6.38;;;;;;;15.43;79.55;100226.13;5098726;28;20035;-68
2023/06/15 03:06:09;;;;;;;9.07;6.22;;;;;;;15.38;79.90;100219.53;5072365;28;20046;-68
2023/06/15 03:08:38;;;;;;;7.88;6.03;;;;;;;15.47;79.71;100232.88;5096887;28;20081;-68
2023/06/15 03:11:04;;;;;;;10.30;6.57;;;;;;;15.48;79.44;100236.44;5095232;28;20074;-68
2023/06/15 03:13:30;;;;;;;9.20;6.55;;;;;;;15.43;79.33;100226.13;5096421;28;20053;-67
2023/06/15 03:15:56;;;;;;;11.25;6.07;;;;;;;15.29;79.59;100198.88;5091143;28;20031;-68
2023/06/15 03:18:21;;;;;;;12.80;6.53;;;;;;;15.50;79.66;100227.13;5074538;28;20043;-68
2023/06/15 03:20:52;;;;;;;13.60;6.38;;;;;;;15.50;79.57;100231.69;5104062;28;20080;-67
2023/06/15 03:23:20;;;;;;;9.10;5.85;;;;;;;15.51;79.63;100236.91;5105600;28;20047;-68
2023/06/15 03:25:46;;;;;;;11.90;6.38;;;;;;;15.49;79.89;100236.25;5098496;28;20052;-68
2023/06/15 03:28:11;;;;;;;12.13;6.95;;;;;;;15.51;80.44;100236.09;5101265;28;20058;-68
2023/06/15 03:30:40;;;;;;;12.88;6.30;;;;;;;15.41;80.67;100225.44;5096356;28;20028;-68
2023/06/15 03:33:07;;;;;;;9.85;6.53;;;;;;;15.53;81.02;100237.59;5099153;28;20383;-68
2023/06/15 03:35:33;;;;;;;13.23;6.82;;;;;;;15.55;81.27;100232.84;5071874;28;20105;-67
2023/06/15 03:37:59;;;;;;;9.07;6.38;;;;;;;15.56;81.52;100229.16;5090321;28;20364;-68
2023/06/15 03:40:24;;;;;;;10.93;5.78;;;;;;;15.56;81.49;100231.88;5097458;28;20043;-68
2023/06/15 03:42:50;;;;;;;13.38;6.43;;;;;;;15.60;81.95;100248.56;5099342;28;20532;-67
2023/06/15 03:45:17;;;;;;;9.15;5.85;;;;;;;15.57;82.31;100232.69;5099789;28;20031;-67
2023/06/15 03:47:45;;;;;;;7.80;5.28;;;;;;;15.68;82.60;100246.72;5090582;28;20122;-67
2023/06/15 03:50:11;;;;;;;10.68;6.07;;;;;;;15.74;82.58;100250.63;5092122;28;20076;-67
2023/06/15 03:52:36;;;;;;;10.13;6.00;;;;;;;15.80;82.73;100256.19;5101755;28;20040;-67
2023/06/15 03:55:02;;;;;;;11.95;6.18;;;;;;;15.85;82.58;100253.84;5096067;28;20114;-67
2023/06/15 03:57:28;;;;;;;10.80;6.07;;;;;;;15.89;82.24;100254.31;5093765;28;20475;-68
2023/06/15 03:59:53;;;;;;;11.93;6.47;;;;;;;15.93;82.26;100255.69;5090557;28;20036;-67
2023/06/15 04:02:19;;;;;;;10.27;6.03;;;;;;;15.94;82.16;100252.78;5091519;28;20020;-67
2023/06/15 04:04:44;;;;;;;14.50;6.78;;;;;;;16.04;82.92;100257.19;5089953;28;20027;-67
2023/06/15 04:07:10;;;;;;;15.93;6.45;;;;;;;16.03;83.04;100248.25;5089346;28;20024;-67
2023/06/15 04:09:36;;;;;;;11.43;6.57;;;;;;;16.13;83.39;100259.72;5090229;28;20020;-67
2023/06/15 04:12:01;;;;;;;9.77;5.85;;;;;;;16.15;83.40;100248.72;5091425;28;20016;-67
2023/06/15 04:14:27;;;;;;;10.73;6.55;;;;;;;16.25;83.50;100252.91;5088333;28;20577;-67
2023/06/15 04:16:52;;;;;;;12.20;6.03;;;;;;;16.29;83.23;100253.44;5088206;28;20048;-68
2023/06/15 04:19:22;;;;;;;9.65;5.88;;;;;;;16.24;83.14;100236.84;5065619;28;20034;-68
2023/06/15 04:21:48;;;;;;;8.10;5.68;;;;;;;16.37;83.44;100245.28;5069412;28;20569;-67
2023/06/15 04:24:14;;;;;;;13.02;6.43;;;;;;;16.48;84.01;100255.78;5087376;28;20035;-67
2023/06/15 04:26:41;;;;;;;16.75;6.07;;;;;;;16.49;84.28;100252.91;5069870;28;20044;-67
2023/06/15 04:29:08;;;;;;;7.85;4.97;;;;;;;16.58;84.63;100254.56;5071853;28;20052;-67
2023/06/15 04:31:33;;;;;;;10.85;6.63;;;;;;;16.59;84.58;100239.16;5096898;28;20024;-71
2023/06/15 04:34:00;;;;;;;6.90;5.38;;;;;;;16.80;85.36;100253.78;5104487;28;20158;-70
2023/06/15 04:36:27;;;;;;;16.63;6.22;;;;;;;16.90;85.99;100250.88;5094920;28;20020;-71
2023/06/15 04:38:53;;;;;;;14.65;6.50;;;;;;;16.93;86.16;100248.66;5100278;28;20036;-70
2023/06/15 04:41:22;;;;;;;11.90;6.05;;;;;;;17.09;85.99;100259.41;5102333;28;20019;-66
2023/06/15 04:43:48;;;;;;;10.07;6.07;;;;;;;17.17;86.33;100259.38;5083824;28;20047;-66
2023/06/15 04:46:14;;;;;;;9.93;6.50;;;;;;;17.28;85.91;100258.94;5093679;28;20036;-66
2023/06/15 04:48:44;;;;;;;8.07;5.78;;;;;;;17.40;85.43;100260.25;5091859;28;20056;-66
2023/06/15 04:51:10;;;;;;;8.88;5.78;;;;;;;17.49;85.27;100258.34;5089041;28;20032;-66
2023/06/15 04:53:36;;;;;;;10.95;6.13;;;;;;;17.62;85.11;100264.00;5090698;28;20703;-66
2023/06/15 04:56:01;;;;;;;11.63;5.90;;;;;;;17.72;84.29;100261.91;5087369;28;20016;-66
2023/06/15 04:58:27;;;;;;;11.02;6.18;;;;;;;17.90;84.02;100276.84;5098916;28;20023;-66
2023/06/15 05:00:52;;;;;;;6.72;5.38;;;;;;;18.05;83.84;100271.44;5097505;28;20031;-67
2023/06/15 05:03:18;;;;;;;10.50;6.18;;;;;;;18.21;83.03;100259.59;5097522;28;20096;-66
2023/06/15 05:05:44;;;;;;;12.05;6.20;;;;;;;18.32;82.41;100254.56;5099950;28;20023;-66
2023/06/15 05:08:10;;;;;;;10.77;6.70;;;;;;;18.42;81.40;100260.59;5070310;28;20046;-66
2023/06/15 05:10:35;;;;;;;11.63;6.25;;;;;;;18.44;80.85;100263.13;5095551;28;20035;-66
2023/06/15 05:13:03;;;;;;;14.35;6.70;;;;;;;18.45;81.00;100252.09;5095921;28;20479;-67
2023/06/15 05:15:29;;;;;;;24.08;6.75;;;;;;;18.51;81.12;100266.78;5088701;28;20052;-66
2023/06/15 05:17:55;;;;;;;12.90;6.53;;;;;;;18.53;81.02;100264.69;5087946;28;20042;-66
2023/06/15 05:20:21;;;;;;;16.67;6.40;;;;;;;18.54;81.37;100261.81;5077846;28;20034;-67
2023/06/15 05:22:46;;;;;;;14.15;6.18;;;;;;;18.54;81.30;100261.81;5087954;28;20107;-67
2023/06/15 05:25:12;;;;;;;11.70;6.38;;;;;;;18.58;81.32;100271.28;5101096;28;20024;-67
2023/06/15 05:27:37;;;;;;;9.73;6.35;;;;;;;18.60;81.05;100271.94;5099530;28;20097;-66
2023/06/15 05:30:07;;;;;;;9.20;6.40;;;;;;;18.65;81.41;100271.38;5093576;28;20031;-66
2023/06/15 05:32:37;;;;;;;12.43;6.43;;;;;;;18.68;81.67;100273.72;5099279;28;20024;-66
2023/06/15 05:35:05;;;;;;;11.38;5.93;;;;;;;18.66;81.67;100273.91;5095606;28;20031;-66
2023/06/15 05:37:31;;;;;;;9.15;5.80;;;;;;;18.77;81.63;100280.75;5098729;28;20092;-67
2023/06/15 05:39:56;;;;;;;9.23;6.50;;;;;;;18.77;81.44;100278.03;5094277;28;20027;-66
2023/06/15 05:42:25;;;;;;;11.20;6.40;;;;;;;18.87;81.02;100284.00;5071893;28;20057;-66
2023/06/15 05:44:50;;;;;;;12.20;6.97;;;;;;;18.94;80.92;100283.06;5093248;28;20348;-66
2023/06/15 05:47:16;;;;;;;14.52;6.78;;;;;;;18.95;80.74;100276.59;5099853;28;20040;-67
2023/06/15 05:49:41;;;;;;;8.75;6.68;;;;;;;19.08;79.93;100293.06;5081496;28;20394;-67
2023/06/15 05:52:07;;;;;;;12.07;7.00;;;;;;;19.16;79.46;100294.84;5099841;28;20531;-67
2023/06/15 05:54:33;;;;;;;12.20;6.22;;;;;;;19.24;79.05;100298.31;5097415;28;20039;-67
2023/06/15 05:56:58;;;;;;;11.75;7.35;;;;;;;19.31;78.85;100299.25;5099846;28;20470;-67
2023/06/15 05:59:23;;;;;;;13.10;6.63;;;;;;;19.39;78.26;100299.16;5085313;28;20467;-66
2023/06/15 06:01:49;;;;;;;8.52;6.35;;;;;;;19.44;77.65;100298.59;5093511;28;20069;-67
2023/06/15 06:04:14;;;;;;;15.75;6.35;;;;;;;19.53;76.72;100302.84;5093564;28;20036;-67
2023/06/15 06:06:40;;;;;;;7.65;5.88;;;;;;;19.51;76.29;100294.88;5087770;28;20502;-66
2023/06/15 06:09:05;;;;;;;10.05;6.40;;;;;;;19.62;76.08;100296.25;5093706;28;20096;-67
2023/06/15 06:11:31;;;;;;;7.30;5.38;;;;;;;19.74;76.21;100301.00;5074471;28;20530;-67
2023/06/15 06:13:56;;;;;;;7.60;6.07;;;;;;;19.81;75.57;100298.34;5091483;28;20031;-67
2023/06/15 06:16:21;;;;;;;11.10;6.38;;;;;;;19.89;74.98;100304.50;5086687;28;20055;-67
2023/06/15 06:18:47;;;;;;;7.07;6.22;;;;;;;19.88;73.76;100291.94;5075619;28;20533;-67
2023/06/15 06:21:12;;;;;;;16.15;6.88;;;;;;;20.04;73.32;100308.00;5096768;28;20031;-67
2023/06/15 06:23:39;;;;;;;9.68;5.88;;;;;;;20.10;72.99;100306.38;5096335;28;20048;-66
2023/06/15 06:26:04;;;;;;;8.00;5.90;;;;;;;20.16;72.57;100303.72;5093179;28;20058;-67
2023/06/15 06:28:29;;;;;;;10.32;6.10;;;;;;;20.27;72.10;100301.50;5084836;28;20028;-67
2023/06/15 06:30:55;;;;;;;9.52;6.18;;;;;;;20.29;71.64;100289.41;5075558;28;20032;-68
2023/06/15 06:33:21;;;;;;;7.00;5.53;;;;;;;20.49;71.70;100301.28;5098263;28;20023;-68
2023/06/15 06:35:46;;;;;;;8.98;5.20;;;;;;;20.60;70.53;100297.16;5091269;28;20059;-67
2023/06/15 06:38:12;;;;;;;6.90;5.22;;;;;;;20.70;69.87;100300.38;5092960;28;20055;-68
2023/06/15 06:40:37;;;;;;;10.25;5.85;;;;;;;20.85;69.82;100309.25;5088676;28;20032;-68
2023/06/15 06:43:03;;;;;;;6.40;5.80;;;;;;;20.97;69.07;100310.41;5102462;28;20035;-68
2023/06/15 06:45:28;;;;;;;12.23;6.60;;;;;;;20.99;68.09;100291.97;5103333;28;20031;-67
2023/06/15 06:47:54;;;;;;;9.77;5.47;;;;;;;21.20;67.69;100305.50;5098358;28;20066;-68
2023/06/15 06:50:19;;;;;;;16.52;5.75;;;;;;;21.32;67.06;100299.28;5096344;28;20499;-69
2023/06/15 06:52:44;;;;;;;7.13;4.90;;;;;;;21.30;66.43;100274.06;5091160;28;20031;-67
2023/06/15 06:55:10;;;;;;;7.55;5.25;;;;;;;21.62;64.96;100306.06;5104609;28;20588;-68
2023/06/15 06:57:36;;;;;;;7.05;5.47;;;;;;;21.65;64.00;100294.75;5096207;28;20024;-68
2023/06/15 07:00:03;;;;;;;10.63;5.50;;;;;;;21.74;63.78;100298.97;5097917;28;20024;-68
2023/06/15 07:02:28;;;;;;;6.57;5.03;;;;;;;21.83;63.37;100307.84;5094830;28;20062;-67
2023/06/15 07:04:53;;;;;;;10.15;5.50;;;;;;;21.86;62.56;100307.44;5100752;28;20063;-68
2023/06/15 07:07:19;;;;;;;11.00;5.20;;;;;;;21.96;61.93;100302.41;5099994;28;20042;-67
2023/06/15 07:09:45;;;;;;;11.38;4.95;;;;;;;21.93;61.40;100284.50;5104246;28;20019;-67
2023/06/15 07:12:11;;;;;;;8.73;4.93;;;;;;;22.15;61.38;100296.09;5093540;28;20082;-68
2023/06/15 07:14:36;;;;;;;10.35;5.15;;;;;;;22.10;60.64;100271.31;5096031;28;20024;-68
2023/06/15 07:17:02;;;;;;;8.93;4.93;;;;;;;22.33;60.59;100294.44;5072328;28;20027;-68
2023/06/15 07:19:27;;;;;;;6.95;4.88;;;;;;;22.38;60.40;100273.81;5095482;28;20028;-68
2023/06/15 07:21:53;;;;;;;8.50;4.95;;;;;;;22.61;59.49;100291.50;5086590;28;20137;-68
2023/06/15 07:24:18;;;;;;;7.47;4.80;;;;;;;22.72;58.35;100281.78;5105773;28;20028;-68
2023/06/15 07:26:43;;;;;;;9.57;4.95;;;;;;;22.85;57.97;100290.78;5098154;28;20058;-68
2023/06/15 07:29:09;;;;;;;7.28;4.85;;;;;;;22.83;58.03;100265.53;5087907;28;20036;-68
2023/06/15 07:31:35;;;;;;;6.15;4.68;;;;;;;22.99;57.51;100277.94;5103974;28;20511;-68
2023/06/15 07:34:02;;;;;;;6.07;4.88;;;;;;;23.07;57.37;100286.75;5095262;28;20035;-68
2023/06/15 07:36:28;;;;;;;8.70;4.82;;;;;;;23.05;56.97;100266.13;5095942;28;21018;-68
2023/06/15 07:38:54;;;;;;;6.35;4.47;;;;;;;23.18;56.76;100271.53;5105106;28;20114;-67
2023/06/15 07:41:19;;;;;;;5.25;4.25;;;;;;;23.18;56.59;100264.16;5095968;28;20054;-68
2023/06/15 07:43:45;;;;;;;7.38;4.25;;;;;;;23.39;56.19;100284.94;5094431;28;20032;-68
2023/06/15 07:46:10;;;;;;;6.30;4.47;;;;;;;23.48;55.53;100279.03;5093704;28;20020;-68
2023/06/15 07:48:36;;;;;;;6.60;4.25;;;;;;;;;;5081281;28;20104;-68
2023/06/15 07:51:01;;;;;;;6.65;4.20;;;;;;;23.67;55.41;100271.75;5104527;28;20063;-68
2023/06/15 07:53:27;;;;;;;5.38;4.60;;;;;;;23.68;54.33;100271.53;5099294;28;20024;-68
2023/06/15 07:55:52;;;;;;;10.10;4.78;;;;;;;23.71;54.50;100279.31;5093499;28;20032;-68
2023/06/15 07:58:17;;;;;;;9.93;4.72;;;;;;;23.75;54.21;100277.78;5095179;28;20031;-68
2023/06/15 08:00:43;;;;;;;7.95;4.57;;;;;;;23.76;53.78;100259.47;5092434;28;20027;-68
2023/06/15 08:03:08;;;;;;;7.13;4.30;;;;;;;23.90;52.69;100278.31;5092252;28;20722;-67
2023/06/15 08:05:34;;;;;;;4.40;3.70;;;;;;;23.94;51.68;100274.13;5087062;28;20036;-68
2023/06/15 08:07:59;;;;;;;4.90;4.07;;;;;;;23.96;51.60;100274.72;5093664;28;20034;-68
2023/06/15 08:10:25;;;;;;;7.95;3.95;;;;;;;24.00;51.64;100277.84;5093274;28;20095;-69
2023/06/15 08:12:50;;;;;;;5.25;3.90;;;;;;;24.02;52.05;100268.34;5106986;28;20027;-69
2023/06/15 08:15:16;;;;;;;10.73;4.22;;;;;;;24.04;52.65;100273.59;5092986;28;20588;-69
2023/06/15 08:17:41;;;;;;;8.95;3.97;;;;;;;24.03;50.81;100275.53;5099187;28;20019;-68
2023/06/15 08:20:09;;;;;;;5.50;4.07;;;;;;;24.03;49.86;100278.28;5100868;28;20036;-69
2023/06/15 08:22:35;;;;;;;4.63;4.05;;;;;;;24.01;50.00;100266.69;5096830;28;20091;-69
2023/06/15 08:25:00;;;;;;;6.03;4.03;;;;;;;24.12;50.08;100279.66;5071963;28;20699;-69
2023/06/15 08:27:26;;;;;;;5.90;3.70;;;;;;;24.20;49.78;100275.78;5104494;28;20035;-68
2023/06/15 08:29:51;;;;;;;5.93;3.80;;;;;;;24.28;49.19;100272.78;5088785;28;20032;-68
2023/06/15 08:32:17;;;;;;;9.20;4.18;;;;;;;24.36;48.90;100276.09;5099707;28;20513;-69
2023/06/15 08:34:43;;;;;;;4.68;4.13;;;;;;;24.35;48.38;100268.91;5081920;28;20039;-68
2023/06/15 08:37:11;;;;;;;5.05;3.67;;;;;;;24.52;48.29;100273.81;5094065;28;20030;-69
2023/06/15 08:39:38;;;;;;;6.38;4.07;;;;;;;24.48;48.48;100258.88;5090202;28;20579;-73
2023/06/15 08:42:04;;;;;;;5.72;4.47;;;;;;;24.53;48.08;100262.63;5103615;28;20027;-73
2023/06/15 08:44:31;;;;;;;6.03;3.55;;;;;;;24.59;48.16;100264.47;5095859;28;20080;-73
2023/06/15 08:46:58;;;;;;;7.07;3.95;;;;;;;24.62;48.15;100249.44;5102244;28;20016;-73
2023/06/15 08:49:26;;;;;;;8.68;4.25;;;;;;;24.71;48.25;100270.91;5099834;28;20118;-73
2023/06/15 08:51:54;;;;;;;5.85;4.10;;;;;;;24.68;48.24;100260.41;5107221;28;20074;-73
2023/06/15 08:54:22;;;;;;;6.78;4.10;;;;;;;24.65;46.76;100258.09;5101584;28;20036;-69
2023/06/15 08:56:48;;;;;;;9.38;4.30;;;;;;;24.81;45.78;100259.41;5092837;28;20152;-68
2023/06/15 08:59:13;;;;;;;5.43;3.60;;;;;;;24.73;46.99;100256.97;5099414;28;20653;-69
2023/06/15 09:01:41;;;;;;;8.00;4.10;;;;;;;24.74;46.70;100254.00;5091421;28;20016;-69
2023/06/15 09:04:07;;;;;;;6.00;4.05;;;;;;;24.66;46.84;100237.00;5097066;28;20035;-69
2023/06/15 09:06:33;;;;;;;4.05;3.45;;;;;;;24.85;46.24;100264.22;5096451;28;20040;-69
2023/06/15 09:08:58;;;;;;;9.30;3.70;;;;;;;24.88;46.44;100261.00;5079952;28;20027;-73
2023/06/15 09:11:24;;;;;;;4.97;3.70;;;;;;;24.93;46.34;100263.06;5101115;28;20024;-73
2023/06/15 09:13:50;;;;;;;8.70;4.00;;;;;;;24.95;45.74;100255.47;5094782;28;20099;-73
2023/06/15 09:16:16;;;;;;;4.18;3.38;;;;;;;25.03;45.37;100263.38;5095785;28;20066;-74
2023/06/15 09:18:46;;;;;;;4.13;3.50;;;;;;;25.10;44.98;100264.13;5077732;28;20035;-73
2023/06/15 09:21:13;;;;;;;4.25;3.17;;;;;;;25.12;44.41;100264.75;5094408;28;20030;-74
2023/06/15 09:23:46;;;;;;;5.63;3.78;;;;;;;25.09;44.57;100259.72;5090635;28;20032;-74
2023/06/15 09:26:22;;;;;;;4.10;3.22;;;;;;;25.07;44.37;100261.84;5096886;28;20744;-73
2023/06/15 09:28:49;;;;;;;3.67;3.10;;;;;;;25.07;43.80;100248.97;5070712;28;20111;-73
2023/06/15 09:31:31;;;;;;;5.57;3.13;;;;;;;25.06;44.19;100246.44;5105323;28;20024;-74
2023/06/15 09:34:01;;;;;;;4.85;3.35;;;;;;;25.11;44.38;100258.41;5100496;28;20031;-74
2023/06/15 09:36:44;;;;;;;5.43;3.60;;;;;;;25.06;44.53;100243.72;5074580;28;20536;-74
2023/06/15 09:39:11;;;;;;;3.22;2.92;;;;;;;25.12;44.15;100248.28;5101331;28;20495;-74
2023/06/15 09:42:00;;;;;;;3.22;2.80;;;;;;;25.22;43.19;100248.56;5078778;28;20048;-74
2023/06/15 09:44:26;;;;;;;4.38;3.60;;;;;;;25.15;44.05;100253.31;5077047;28;20110;-74
2023/06/15 09:46:53;;;;;;;8.40;4.05;;;;;;;25.04;44.07;100243.94;5097254;28;20060;-74
2023/06/15 09:49:25;;;;;;;5.28;3.33;;;;;;;25.01;44.14;100249.88;5099196;28;20027;-74
2023/06/15 09:51:51;;;;;;;3.70;3.40;;;;;;;24.97;44.33;100248.66;5101815;28;20031;-74
2023/06/15 09:54:22;;;;;;;7.85;3.55;;;;;;;24.91;44.34;100235.88;5101230;28;20038;-74
2023/06/15 09:56:52;;;;;;;4.03;3.38;;;;;;;24.95;44.02;100233.50;5092252;28;20020;-75
2023/06/15 09:59:18;;;;;;;5.55;3.25;;;;;;;24.99;43.90;100253.94;5100819;28;20027;-74
2023/06/15 10:01:46;;;;;;;5.32;3.63;;;;;;;24.96;43.80;100240.66;5089478;28;20024;-74
2023/06/15 10:04:12;;;;;;;3.85;3.38;;;;;;;25.00;43.22;100239.97;5094831;28;20069;-75
2023/06/15 10:06:41;;;;;;;4.18;3.70;;;;;;;25.02;43.06;100243.31;5103270;28;20042;-70
2023/06/15 10:09:09;;;;;;;7.75;3.33;;;;;;;25.00;42.94;100230.91;5104061;28;20383;-75
2023/06/15 10:11:41;;;;;;;6.18;3.53;;;;;;;24.99;42.96;100231.97;5101387;28;20023;-74
2023/06/15 10:14:21;;;;;;;5.03;3.40;;;;;;;24.99;43.03;100231.97;5101605;28;20486;-74
2023/06/15 10:16:57;;;;;;;5.53;3.38;;;;;;;25.01;43.19;100232.56;5102298;28;20020;-75
2023/06/15 10:19:25;;;;;;;6.72;3.78;;;;;;;25.06;42.99;100240.97;5101550;28;20035;-74
2023/06/15 10:21:52;;;;;;;6.20;3.70;;;;;;;25.06;43.37;100243.72;5078991;28;20111;-75
2023/06/15 10:24:22;;;;;;;5.88;3.45;;;;;;;24.94;43.48;100232.66;5104290;28;20063;-75
2023/06/15 10:26:48;;;;;;;5.00;3.42;;;;;;;24.91;43.33;100224.03;5106560;28;20039;-75
2023/06/15 10:29:37;;;;;;;5.10;3.45;;;;;;;25.06;43.13;100239.06;5100497;28;20106;-75
2023/06/15 10:32:15;;;;;;;5.38;3.20;;;;;;;25.10;42.91;100242.16;5107112;28;20049;-76
2023/06/15 10:35:03;;;;;;;4.15;3.10;;;;;;;25.16;41.83;100233.00;5099351;28;20486;-75
2023/06/15 10:37:46;;;;;;;4.10;3.17;;;;;;;25.15;42.45;100234.09;5085864;28;20119;-74
2023/06/15 10:40:20;;;;;;;5.07;3.65;;;;;;;25.16;41.95;100228.38;5099209;28;20020;-75
2023/06/15 10:42:49;;;;;;;4.82;3.70;;;;;;;25.19;41.48;100235.31;5084458;28;20052;-74
2023/06/15 10:45:25;;;;;;;3.15;2.85;;;;;;;25.23;41.01;100236.50;5090717;28;20031;-74
2023/06/15 10:47:51;;;;;;;3.95;3.30;;;;;;;25.17;40.64;100230.03;5099380;28;20382;-70
2023/06/15 10:50:16;;;;;;;4.03;3.25;;;;;;;25.22;40.81;100230.19;5103739;28;20023;-70
2023/06/15 10:52:42;;;;;;;3.67;2.92;;;;;;;25.25;40.97;100234.38;5094372;28;20043;-70
2023/06/15 10:55:09;;;;;;;3.80;3.22;;;;;;;25.25;40.07;100227.00;5092481;28;20036;-70
2023/06/15 10:57:35;;;;;;;3.40;3.10;;;;;;;25.26;39.54;100219.56;5096068;28;20064;-70
2023/06/15 11:00:04;;;;;;;4.35;3.10;;;;;;;25.30;39.64;100226.28;5100533;28;20683;-75
2023/06/15 11:02:32;;;;;;;4.72;2.95;;;;;;;25.39;39.66;100230.41;5104816;28;20020;-75
2023/06/15 11:05:12;;;;;;;3.47;3.17;;;;;;;25.42;39.50;100230.78;5104378;28;20035;-75
2023/06/15 11:07:45;;;;;;;5.28;3.20;;;;;;;25.45;39.77;100218.50;5103082;28;20378;-75
2023/06/15 11:10:17;;;;;;;4.60;3.05;;;;;;;25.46;39.67;100217.41;5101195;28;20479;-75
2023/06/15 11:12:48;;;;;;;2.88;2.63;;;;;;;25.50;38.37;100210.41;5101500;28;20043;-75
2023/06/15 11:15:15;;;;;;;4.22;3.00;;;;;;;25.59;37.42;100203.47;5080136;28;20249;-75
2023/06/15 11:18:20;;;;;;;6.20;3.40;;;;;;;25.66;38.47;100212.50;5095564;28;20055;-75
2023/06/15 11:20:51;;;;;;;4.13;3.13;;;;;;;25.69;39.67;100217.47;4978768;28;20027;-75
2023/06/15 11:23:19;;;;;;;4.32;3.00;;;;;;;25.64;40.26;100195.41;4997481;28;20077;-75